createdAt,value
2023-01-17T00:00:33.053Z,37.28
2023-01-17T00:03:00.023Z,38.08
2023-01-17T00:08:30.841Z,37.70
2023-01-17T00:13:24.098Z,36.97
2023-01-17T00:15:51.008Z,38.28
2023-01-17T00:18:18.005Z,30.73
2023-01-17T00:23:42.227Z,35.75
2023-01-17T00:31:11.250Z,28.13
2023-01-17T00:36:04.845Z,17.02
2023-01-17T00:38:33.047Z,19.45
2023-01-17T00:52:00.201Z,21.10
2023-01-17T00:54:45.548Z,20.33
2023-01-17T01:02:59.145Z,19.60
2023-01-17T01:08:37.671Z,18.20
2023-01-17T01:11:24.003Z,23.85
2023-01-17T01:14:09.462Z,16.67
2023-01-17T01:16:55.186Z,21.02
2023-01-17T01:19:40.414Z,20.83
2023-01-17T01:30:37.578Z,19.33
2023-01-17T01:33:20.716Z,21.60
2023-01-17T01:38:41.323Z,17.13
2023-01-17T01:41:08.457Z,15.50
2023-01-17T01:48:39.892Z,16.45
2023-01-17T01:51:08.953Z,17.08
2023-01-17T01:53:37.049Z,21.73
2023-01-17T01:56:06.092Z,17.92
2023-01-17T01:58:34.067Z,12.77
2023-01-17T02:01:01.012Z,16.23
2023-01-17T02:03:30.431Z,18.52
2023-01-17T02:06:01.163Z,16.98
2023-01-17T02:08:28.384Z,12.40
2023-01-17T02:10:56.406Z,19.80
2023-01-17T02:13:23.395Z,20.02
2023-01-17T02:15:56.400Z,15.93
2023-01-17T02:18:45.962Z,13.88
2023-01-17T02:21:21.567Z,13.00
2023-01-17T02:23:54.614Z,13.68
2023-01-17T02:26:30.376Z,16.33
2023-01-17T02:31:45.986Z,13.47
2023-01-17T02:34:12.876Z,12.52
2023-01-17T02:46:47.231Z,18.00
2023-01-17T02:49:15.411Z,14.10
2023-01-17T02:51:42.267Z,16.40
2023-01-17T02:54:18.175Z,18.58
2023-01-17T02:56:50.561Z,15.40
2023-01-17T02:59:36.045Z,16.48
2023-01-17T03:02:18.736Z,17.75
2023-01-17T03:09:46.183Z,17.08
2023-01-17T03:14:39.334Z,11.32
2023-01-17T03:17:06.481Z,13.25
2023-01-17T03:19:33.826Z,14.40
2023-01-17T03:22:00.971Z,12.27
2023-01-17T03:24:27.808Z,10.05
2023-01-17T03:34:12.496Z,11.75
2023-01-17T03:36:39.479Z,10.57
2023-01-17T03:39:06.383Z,11.05
2023-01-17T03:41:33.375Z,18.15
2023-01-17T03:44:01.122Z,14.23
2023-01-17T03:46:28.971Z,9.75
2023-01-17T03:51:21.676Z,10.48
2023-01-17T03:53:48.650Z,11.90
2023-01-17T03:58:41.220Z,14.80
2023-01-17T04:01:08.263Z,14.45
2023-01-17T04:03:35.369Z,12.55
2023-01-17T04:06:02.370Z,9.68
2023-01-17T04:08:29.626Z,13.50
2023-01-17T04:15:48.881Z,9.95
2023-01-17T04:18:19.793Z,11.07
2023-01-17T04:20:46.922Z,21.35
2023-01-17T04:23:13.784Z,13.25
2023-01-17T04:25:40.672Z,16.27
2023-01-17T04:28:08.613Z,17.88
2023-01-17T04:30:35.556Z,13.05
2023-01-17T04:33:02.542Z,18.88
2023-01-17T04:35:30.246Z,15.93
2023-01-17T04:37:57.393Z,16.95
2023-01-17T04:40:24.891Z,13.48
2023-01-17T04:42:52.002Z,16.20
2023-01-17T04:45:18.856Z,19.33
2023-01-17T04:47:45.891Z,12.95
2023-01-17T04:50:13.034Z,13.18
2023-01-17T04:52:39.987Z,15.43
2023-01-17T04:55:07.153Z,20.65
2023-01-17T04:57:34.148Z,8.95
2023-01-17T05:00:01.191Z,9.18
2023-01-17T05:02:28.311Z,19.42
2023-01-17T05:04:55.524Z,14.77
2023-01-17T05:07:22.473Z,10.40
2023-01-17T05:09:49.551Z,13.27
2023-01-17T05:12:16.616Z,12.77
2023-01-17T05:14:43.511Z,17.02
2023-01-17T05:19:37.084Z,14.77
2023-01-17T05:24:40.808Z,14.95
2023-01-17T05:27:08.006Z,17.17
2023-01-17T05:29:34.914Z,25.23
2023-01-17T05:32:02.089Z,22.80
2023-01-17T05:34:29.140Z,22.25
2023-01-17T05:36:56.053Z,22.40
2023-01-17T05:39:23.195Z,23.48
2023-01-17T05:41:50.200Z,19.02
2023-01-17T05:44:17.070Z,18.13
2023-01-17T05:46:44.208Z,21.60
2023-01-17T05:49:11.050Z,25.98
2023-01-17T05:51:39.693Z,18.77
2023-01-17T05:54:06.980Z,23.40
2023-01-17T05:56:34.120Z,20.73
2023-01-17T05:59:01.153Z,22.20
2023-01-17T06:01:28.474Z,19.10
2023-01-17T06:03:55.234Z,23.48
2023-01-17T06:11:13.761Z,19.60
2023-01-17T06:13:40.764Z,17.75
2023-01-17T06:16:07.941Z,19.85
2023-01-17T06:18:35.029Z,22.45
2023-01-17T06:23:28.428Z,20.05
2023-01-17T06:25:55.411Z,19.33
2023-01-17T06:28:23.164Z,24.98
2023-01-17T06:33:15.852Z,37.53
2023-01-17T06:35:49.706Z,51.10
2023-01-17T06:43:07.952Z,40.97
2023-01-17T06:50:29.569Z,46.47
2023-01-17T07:02:41.692Z,37.05
2023-01-17T07:05:08.796Z,41.75
2023-01-17T07:07:35.961Z,33.60
2023-01-17T07:14:54.939Z,29.33
2023-01-17T07:22:12.815Z,35.42
2023-01-17T07:27:07.316Z,39.30
2023-01-17T07:29:34.405Z,34.47
2023-01-17T07:32:01.911Z,30.50
2023-01-17T07:34:28.816Z,31.95
2023-01-17T07:36:55.779Z,25.52
2023-01-17T07:39:22.834Z,29.13
2023-01-17T07:46:40.989Z,28.42
2023-01-17T07:49:07.921Z,40.03
2023-01-17T07:51:34.966Z,37.60
2023-01-17T07:54:01.855Z,20.00
2023-01-17T07:56:28.855Z,19.40
2023-01-17T07:58:55.716Z,24.25
2023-01-17T08:08:44.593Z,28.70
2023-01-17T08:11:12.670Z,34.75
2023-01-17T08:13:40.372Z,41.42
2023-01-17T08:18:33.106Z,29.95
2023-01-17T08:21:00.117Z,23.88
2023-01-17T08:23:27.226Z,28.05
2023-01-17T08:25:54.192Z,24.70
2023-01-17T08:28:21.103Z,16.00
2023-01-17T08:33:22.446Z,19.73
2023-01-17T08:40:45.088Z,24.98
2023-01-17T08:43:12.259Z,24.00
2023-01-17T08:45:43.674Z,29.00
2023-01-17T08:48:10.601Z,30.95
2023-01-17T08:53:03.247Z,19.35
2023-01-17T08:55:30.250Z,28.75
2023-01-17T08:57:57.658Z,25.08
2023-01-17T09:00:24.519Z,20.88
2023-01-17T09:02:53.215Z,25.52
2023-01-17T09:07:45.701Z,20.95
2023-01-17T09:10:12.763Z,45.70
2023-01-17T09:12:40.521Z,37.42
2023-01-17T09:15:07.886Z,25.05
2023-01-17T09:17:34.911Z,40.90
2023-01-17T09:20:02.111Z,69.63
2023-01-17T09:24:54.714Z,50.80
2023-01-17T09:27:21.673Z,27.95
2023-01-17T09:29:48.583Z,20.67
2023-01-17T09:32:17.268Z,27.98
2023-01-17T09:34:44.502Z,52.15
2023-01-17T09:39:36.971Z,16.50
2023-01-17T09:42:09.616Z,16.58
2023-01-17T09:47:30.419Z,17.75
2023-01-17T09:50:00.020Z,16.75
2023-01-17T09:52:30.003Z,16.25
2023-01-17T09:54:56.932Z,20.00
2023-01-17T09:57:29.815Z,18.08
2023-01-17T10:00:03.596Z,19.17
2023-01-17T10:05:26.785Z,17.77
2023-01-17T10:08:12.191Z,16.77
2023-01-17T10:10:43.354Z,18.80
2023-01-17T10:16:23.981Z,20.63
2023-01-17T10:18:58.978Z,26.02
2023-01-17T10:21:28.614Z,20.58
2023-01-17T10:26:49.048Z,22.67
2023-01-17T10:31:51.459Z,17.60
2023-01-17T10:39:21.845Z,17.88
2023-01-17T10:42:09.015Z,18.77
2023-01-17T10:44:48.379Z,19.98
2023-01-17T10:47:19.693Z,16.25
2023-01-17T10:49:47.916Z,13.55
2023-01-17T11:04:54.594Z,14.70
2023-01-17T11:07:28.953Z,16.80
2023-01-17T11:09:57.035Z,11.57
2023-01-17T11:12:34.280Z,11.15
2023-01-17T11:22:37.899Z,10.70
2023-01-17T11:25:05.106Z,11.05
2023-01-17T11:27:34.192Z,11.45
2023-01-17T11:30:18.103Z,12.63
2023-01-17T11:32:54.944Z,9.38
2023-01-17T11:35:29.163Z,10.30
2023-01-17T11:37:58.910Z,12.07
2023-01-17T11:40:28.046Z,8.35
2023-01-17T11:43:02.889Z,12.30
2023-01-17T11:45:31.200Z,11.32
2023-01-17T11:48:05.206Z,8.13
2023-01-17T11:50:32.195Z,9.65
2023-01-17T11:58:26.927Z,10.75
2023-01-17T12:01:20.349Z,10.68
2023-01-17T12:03:47.222Z,12.30
2023-01-17T12:06:18.144Z,18.00
2023-01-17T12:08:44.912Z,13.05
2023-01-17T12:14:10.980Z,8.68
2023-01-17T12:29:02.977Z,10.30
2023-01-17T12:31:33.668Z,9.07
2023-01-17T12:34:09.910Z,12.57
2023-01-17T12:36:43.791Z,9.73
2023-01-17T12:39:14.358Z,8.75
2023-01-17T12:54:56.432Z,23.33
2023-01-17T12:57:25.592Z,140.45
2023-01-17T13:00:02.051Z,47.30
2023-01-17T13:02:31.839Z,80.40
2023-01-17T13:05:05.568Z,98.80
2023-01-17T13:07:38.101Z,133.95
2023-01-17T13:10:07.861Z,146.52
2023-01-17T13:12:37.974Z,110.72
2023-01-17T13:15:13.955Z,45.38
2023-01-17T13:17:45.186Z,17.88
2023-01-17T13:20:17.801Z,62.50
2023-01-17T13:22:44.967Z,12.38
2023-01-17T13:25:23.835Z,16.27
2023-01-17T13:30:31.063Z,7.85
2023-01-17T13:33:04.548Z,10.73
2023-01-17T13:50:48.863Z,8.40
2023-01-17T13:53:34.144Z,11.52
2023-01-17T14:03:51.835Z,12.23
2023-01-17T14:09:02.946Z,10.98
2023-01-17T14:11:32.703Z,13.35
2023-01-17T14:16:46.335Z,8.73
2023-01-17T14:19:26.320Z,11.50
2023-01-17T14:22:13.122Z,14.40
2023-01-17T14:24:59.016Z,18.30
2023-01-17T14:27:27.458Z,17.75
2023-01-17T14:30:00.665Z,19.63
2023-01-17T14:42:24.959Z,26.40
2023-01-17T14:44:53.391Z,26.50
2023-01-17T14:49:46.091Z,29.08
2023-01-17T14:52:17.633Z,26.55
2023-01-17T14:57:26.058Z,43.13
2023-01-17T15:00:08.776Z,29.48
2023-01-17T15:02:39.984Z,33.47
2023-01-17T15:05:07.085Z,32.38
2023-01-17T15:07:34.262Z,42.70
2023-01-17T15:10:04.072Z,42.05
2023-01-17T15:12:31.032Z,26.02
2023-01-17T15:17:26.946Z,38.80
2023-01-17T15:20:01.912Z,37.08
2023-01-17T15:24:55.965Z,45.03
2023-01-17T15:27:25.015Z,44.80
2023-01-17T15:29:52.250Z,32.70
2023-01-17T15:32:19.161Z,26.02
2023-01-17T15:34:47.026Z,49.25
2023-01-17T15:39:48.453Z,46.90
2023-01-17T15:44:53.309Z,37.15
2023-01-17T15:54:55.477Z,44.33
2023-01-17T15:57:37.206Z,53.83
2023-01-17T16:00:11.093Z,41.53
2023-01-17T16:02:39.486Z,62.78
2023-01-17T16:10:16.616Z,48.03
2023-01-17T16:15:12.826Z,59.95
2023-01-17T16:17:42.634Z,65.45
2023-01-17T16:27:42.770Z,41.58
2023-01-17T16:30:11.013Z,39.95
2023-01-17T16:42:20.263Z,45.45
2023-01-17T16:44:47.481Z,31.67
2023-01-17T16:47:14.379Z,42.92
2023-01-17T16:52:06.981Z,40.15
2023-01-17T16:54:34.443Z,54.25
2023-01-17T17:04:18.743Z,45.42
2023-01-17T17:06:46.375Z,48.97
2023-01-17T17:09:13.226Z,50.20
2023-01-17T17:11:42.172Z,48.17
2023-01-17T17:14:09.735Z,54.28
2023-01-17T17:19:03.792Z,64.07
2023-01-17T17:21:31.292Z,71.07
2023-01-17T17:23:59.195Z,72.22
2023-01-17T17:26:27.526Z,89.85
2023-01-17T17:28:54.666Z,104.55
2023-01-17T17:31:21.841Z,91.38
2023-01-17T17:38:52.151Z,113.05
2023-01-17T17:41:30.011Z,99.15
2023-01-17T17:46:23.874Z,115.95
2023-01-17T17:48:51.138Z,121.03
2023-01-17T17:53:52.801Z,105.35
2023-01-17T17:56:20.778Z,113.45
2023-01-17T17:58:48.011Z,117.05
2023-01-17T18:01:15.224Z,119.65
2023-01-17T18:03:42.995Z,108.22
2023-01-17T18:06:11.658Z,127.97
2023-01-17T18:08:39.283Z,116.47
2023-01-17T18:11:08.046Z,104.55
2023-01-17T18:13:35.105Z,98.97
2023-01-17T18:16:08.372Z,101.75
2023-01-17T18:21:05.696Z,104.95
2023-01-17T18:23:33.752Z,121.97
2023-01-17T18:28:27.415Z,105.95
2023-01-17T18:30:54.317Z,95.78
2023-01-17T18:38:20.387Z,100.35
2023-01-17T18:45:38.958Z,116.25
2023-01-17T18:48:06.096Z,115.10
2023-01-17T18:50:33.243Z,105.93
2023-01-17T18:57:51.259Z,120.05
2023-01-17T19:00:19.823Z,110.25
2023-01-17T19:02:48.994Z,104.53
2023-01-17T19:05:18.027Z,103.55
2023-01-17T19:07:45.038Z,113.45
2023-01-17T19:15:03.167Z,122.25
2023-01-17T19:17:30.012Z,120.65
2023-01-17T19:19:57.210Z,101.13
2023-01-17T19:22:24.297Z,112.50
2023-01-17T19:24:53.214Z,129.85
2023-01-17T19:27:20.715Z,121.47
2023-01-17T19:29:47.582Z,129.52
2023-01-17T19:32:14.469Z,115.72
2023-01-17T19:34:43.531Z,140.25
2023-01-17T19:39:35.976Z,115.03
2023-01-17T19:42:02.952Z,102.53
2023-01-17T19:44:30.226Z,144.73
2023-01-17T19:46:57.110Z,145.30
2023-01-17T19:49:24.925Z,119.18
2023-01-17T19:56:43.193Z,108.65
2023-01-17T20:04:02.409Z,87.63
2023-01-17T20:08:57.540Z,101.47
2023-01-17T20:11:25.120Z,91.35
2023-01-17T20:13:56.169Z,91.95
2023-01-17T20:19:25.599Z,88.53
2023-01-17T20:21:52.967Z,94.05
2023-01-17T20:24:19.988Z,97.15
2023-01-17T20:29:16.282Z,91.43
2023-01-17T20:31:44.056Z,97.35
2023-01-17T20:34:12.523Z,89.95
2023-01-17T20:36:40.773Z,91.38
2023-01-17T20:41:38.260Z,88.32
2023-01-17T20:44:06.467Z,92.40
2023-01-17T20:46:35.759Z,88.57
2023-01-17T20:51:31.326Z,76.47
2023-01-17T20:53:59.893Z,86.30
2023-01-17T20:58:53.182Z,85.13
2023-01-17T21:01:21.639Z,87.93
2023-01-17T21:03:51.254Z,77.20
2023-01-17T21:06:19.356Z,68.53
2023-01-17T21:08:46.705Z,74.47
2023-01-17T21:11:15.507Z,76.57
2023-01-17T21:13:43.125Z,80.57
2023-01-17T21:16:11.887Z,83.22
2023-01-17T21:18:38.918Z,71.40
2023-01-17T21:21:10.997Z,68.55
2023-01-17T21:28:34.383Z,68.28
2023-01-17T21:35:55.402Z,73.90
2023-01-17T21:40:47.829Z,86.60
2023-01-17T21:43:16.659Z,70.20
2023-01-17T21:48:13.415Z,56.72
2023-01-17T21:50:40.393Z,53.65
2023-01-17T21:53:08.069Z,60.70
2023-01-17T21:55:53.156Z,78.10
2023-01-17T21:58:38.266Z,107.50
2023-01-17T22:01:11.203Z,107.22
2023-01-17T22:03:38.258Z,116.90
2023-01-17T22:13:31.456Z,244.77
2023-01-17T22:18:25.359Z,169.27
2023-01-17T22:20:52.329Z,121.95
2023-01-17T22:23:19.364Z,117.88
2023-01-17T22:25:46.506Z,138.50
2023-01-17T22:28:13.501Z,124.72
2023-01-17T22:30:40.411Z,175.27
2023-01-17T22:33:07.516Z,191.27
2023-01-17T22:35:34.367Z,158.77
2023-01-17T22:57:27.562Z,100.13
2023-01-17T22:59:55.328Z,104.47
2023-01-17T23:02:22.362Z,109.95
2023-01-17T23:12:06.745Z,98.30
2023-01-17T23:14:52.773Z,106.95
2023-01-17T23:17:41.563Z,94.30
2023-01-17T23:25:08.301Z,95.40
2023-01-17T23:27:57.174Z,85.93
2023-01-17T23:40:42.068Z,85.18
2023-01-17T23:43:24.934Z,82.65
2023-01-17T23:58:07.906Z,88.22
